Time;durP1;ratioP1;P1;durP2;ratioP2;P2;SDS_P1;SDS_P2;PMS_P1;PMS_P2;Temp;Humidity;BMP_temperature;BMP_pressure;BME280_temperature;BME280_humidity;BME280_pressure;Samples;Min_cycle;Max_cycle;Signal;HPM_P1;HPM_P2
2022/09/16 00:02:10;;;;;;;;;;;19.70;60.50;;;;;;5094150;28;20010;-67
2022/09/16 00:04:36;;;;;;;;;;;19.70;60.50;;;;;;5093983;28;19920;-67
2022/09/16 00:07:02;;;;;;;;;;;19.70;60.50;;;;;;5092636;28;19926;-67
2022/09/16 00:09:28;;;;;;;;;;;19.70;60.50;;;;;;5092355;28;20306;-67
2022/09/16 00:11:53;;;;;;;;;;;19.70;60.50;;;;;;5093681;28;20023;-67
2022/09/16 00:14:19;;;;;;;;;;;19.70;60.50;;;;;;5092620;28;19920;-67
2022/09/16 00:16:45;;;;;;;;;;;19.70;60.60;;;;;;5092327;28;20351;-67
2022/09/16 00:19:12;;;;;;;;;;;19.70;60.60;;;;;;5093579;28;19920;-67
2022/09/16 00:21:37;;;;;;;;;;;19.70;60.60;;;;;;5092234;28;19999;-67
2022/09/16 00:24:03;;;;;;;;;;;19.70;60.50;;;;;;5093490;28;20023;-67
2022/09/16 00:26:29;;;;;;;;;;;19.70;60.60;;;;;;5093518;28;19920;-67
2022/09/16 00:28:54;;;;;;;;;;;19.60;60.50;;;;;;5092296;28;20375;-67
2022/09/16 00:31:20;;;;;;;;;;;19.60;60.50;;;;;;5093199;28;20007;-67
2022/09/16 00:33:46;;;;;;;;;;;19.60;60.60;;;;;;5092138;28;19980;-67
2022/09/16 00:36:13;;;;;;;;;;;19.60;60.50;;;;;;5091967;28;19927;-67
2022/09/16 00:38:39;;;;;;;;;;;19.60;60.60;;;;;;5091847;28;19927;-67
2022/09/16 00:41:05;;;;;;;;;;;19.60;60.60;;;;;;5092158;28;19924;-67
2022/09/16 00:43:50;;;;;;;;;;;19.60;60.60;;;;;;5092126;28;19927;-67
2022/09/16 00:46:18;;;;;;;;;;;19.60;60.60;;;;;;5092932;28;19920;-67
2022/09/16 00:48:44;;;;;;;;;;;19.60;60.60;;;;;;5074835;28;20022;-67
2022/09/16 00:51:11;;;;;;;;;;;19.60;60.60;;;;;;5091928;28;20015;-67
2022/09/16 00:53:39;;;;;;;;;;;19.60;60.60;;;;;;5091582;28;19920;-67
2022/09/16 00:56:05;;;;;;;;;;;19.60;60.60;;;;;;5091819;28;19963;-67
2022/09/16 01:01:12;;;;;;;;;;;19.60;60.50;;;;;;5089898;28;19919;-67
2022/09/16 01:03:43;;;;;;;;;;;19.60;60.50;;;;;;5090071;28;19920;-67
2022/09/16 01:06:10;;;;;;;;;;;19.70;60.60;;;;;;5088864;28;19921;-67
2022/09/16 01:08:36;;;;;;;;;;;19.60;60.60;;;;;;5088505;28;19920;-67
2022/09/16 01:11:01;;;;;;;;;;;19.60;60.60;;;;;;5088363;28;19927;-67
2022/09/16 01:13:27;;;;;;;;;;;19.50;60.50;;;;;;5088748;28;19920;-67
2022/09/16 01:16:12;;;;;;;;;;;19.60;60.60;;;;;;5089637;28;19965;-67
2022/09/16 01:18:46;;;;;;;;;;;19.60;60.60;;;;;;5105404;28;19927;-67
2022/09/16 01:21:17;;;;;;;;;;;19.60;60.60;;;;;;5089569;28;20384;-67
2022/09/16 01:24:03;;;;;;;;;;;19.60;60.60;;;;;;5088219;28;19956;-67
2022/09/16 01:29:20;;;;;;;;;;;19.60;60.60;;;;;;5089980;28;19913;-67
2022/09/16 01:37:14;;;;;;;;;;;19.50;60.50;;;;;;5089864;28;20269;-67
2022/09/16 01:47:59;;;;;;;;;;;19.50;60.50;;;;;;5110240;27;19919;-67
2022/09/16 01:50:28;;;;;;;;;;;19.50;60.50;;;;;;5108955;28;20387;-67
2022/09/16 01:55:37;;;;;;;;;;;19.50;60.50;;;;;;5089926;28;19913;-67
2022/09/16 01:58:23;;;;;;;;;;;19.50;60.50;;;;;;5088434;28;19921;-67
2022/09/16 02:00:52;;;;;;;;;;;19.50;60.50;;;;;;5089650;28;20268;-67
2022/09/16 02:03:20;;;;;;;;;;;19.50;60.50;;;;;;5088380;28;20445;-67
2022/09/16 02:05:49;;;;;;;;;;;19.50;60.60;;;;;;5088485;28;19924;-67
2022/09/16 02:08:21;;;;;;;;;;;19.50;60.50;;;;;;5088633;28;19927;-67
2022/09/16 02:10:49;;;;;;;;;;;19.50;60.60;;;;;;5088381;28;19924;-67
2022/09/16 02:13:19;;;;;;;;;;;19.50;60.50;;;;;;5088487;28;19920;-67
2022/09/16 02:15:46;;;;;;;;;;;19.50;60.60;;;;;;5089508;28;19920;-67
2022/09/16 02:18:15;;;;;;;;;;;19.50;60.60;;;;;;5088147;28;19955;-67
2022/09/16 02:20:43;;;;;;;;;;;19.50;60.50;;;;;;5089369;28;19990;-67
2022/09/16 02:23:16;;;;;;;;;;;19.50;60.50;;;;;;5089362;28;19974;-67
2022/09/16 02:25:44;;;;;;;;;;;19.50;60.60;;;;;;5088519;28;20284;-67
2022/09/16 02:28:11;;;;;;;;;;;19.50;60.50;;;;;;5087960;28;19920;-67
2022/09/16 02:30:39;;;;;;;;;;;19.50;60.50;;;;;;5088173;28;19936;-67
2022/09/16 02:33:06;;;;;;;;;;;19.50;60.60;;;;;;5089091;28;19971;-67
2022/09/16 02:35:33;;;;;;;;;;;19.50;60.50;;;;;;5089413;28;20343;-67
2022/09/16 02:38:01;;;;;;;;;;;19.50;60.50;;;;;;5089343;28;19920;-67
2022/09/16 02:40:30;;;;;;;;;;;19.50;60.50;;;;;;5089206;28;19924;-67
2022/09/16 02:42:57;;;;;;;;;;;19.50;60.60;;;;;;5088001;28;19920;-67
2022/09/16 02:45:24;;;;;;;;;;;19.40;60.50;;;;;;5087698;28;19924;-67
2022/09/16 02:48:02;;;;;;;;;;;19.40;60.50;;;;;;5087601;28;19924;-67
2022/09/16 02:50:32;;;;;;;;;;;19.40;60.50;;;;;;5089101;28;19928;-67
2022/09/16 02:53:01;;;;;;;;;;;19.40;60.50;;;;;;5088938;28;19920;-68
2022/09/16 02:58:10;;;;;;;;;;;19.40;60.50;;;;;;5110154;27;19912;-67
2022/09/16 03:00:39;;;;;;;;;;;19.40;60.50;;;;;;5108962;28;20322;-67
2022/09/16 03:03:05;;;;;;;;;;;19.40;60.60;;;;;;5143390;27;20367;-67
2022/09/16 03:05:30;;;;;;;;;;;19.40;60.60;;;;;;5108904;28;19920;-67
2022/09/16 03:07:57;;;;;;;;;;;19.40;60.50;;;;;;5109242;28;19978;-67
2022/09/16 03:10:26;;;;;;;;;;;19.40;60.60;;;;;;5108676;28;19927;-67
2022/09/16 03:13:12;;;;;;;;;;;19.40;60.50;;;;;;5108651;28;19930;-67
2022/09/16 03:15:45;;;;;;;;;;;19.40;60.50;;;;;;5108483;28;19977;-67
2022/09/16 03:18:17;;;;;;;;;;;19.40;60.50;;;;;;5108627;28;19924;-66
2022/09/16 03:21:03;;;;;;;;;;;19.40;60.50;;;;;;5108801;28;19927;-67
2022/09/16 03:23:48;;;;;;;;;;;19.40;60.60;;;;;;5108587;28;19920;-67
2022/09/16 03:29:16;;;;;;;;;;;19.40;60.60;;;;;;5110334;27;19912;-67
2022/09/16 03:34:29;;;;;;;;;;;19.30;60.50;;;;;;5089789;28;20276;-67
2022/09/16 03:36:57;;;;;;;;;;;19.30;60.50;;;;;;5088907;28;20337;-67
2022/09/16 03:39:23;;;;;;;;;;;19.30;60.50;;;;;;5088877;28;20385;-67
2022/09/16 03:41:49;;;;;;;;;;;19.30;60.60;;;;;;5088389;28;19921;-67
2022/09/16 03:44:15;;;;;;;;;;;19.30;60.50;;;;;;5088653;28;19924;-67
2022/09/16 03:46:41;;;;;;;;;;;19.30;60.50;;;;;;5088381;28;19921;-67
2022/09/16 03:49:06;;;;;;;;;;;19.30;60.50;;;;;;5088388;28;19920;-66
2022/09/16 03:51:32;;;;;;;;;;;19.30;60.50;;;;;;5089022;28;19952;-67
2022/09/16 03:53:57;;;;;;;;;;;19.30;60.60;;;;;;5089532;28;19925;-67
2022/09/16 03:56:23;;;;;;;;;;;19.30;60.60;;;;;;5089486;28;20351;-68
2022/09/16 03:58:49;;;;;;;;;;;19.30;60.60;;;;;;5088739;28;20011;-67
2022/09/16 04:01:14;;;;;;;;;;;19.30;60.60;;;;;;5088408;28;20380;-67
2022/09/16 04:03:40;;;;;;;;;;;19.20;60.50;;;;;;5088478;28;19920;-67
2022/09/16 04:06:06;;;;;;;;;;;19.30;60.60;;;;;;5088072;28;19974;-68
2022/09/16 04:08:31;;;;;;;;;;;19.30;60.60;;;;;;5088360;28;19927;-67
2022/09/16 04:10:58;;;;;;;;;;;19.20;60.50;;;;;;5087907;28;20391;-67
2022/09/16 04:13:24;;;;;;;;;;;19.30;60.60;;;;;;5089180;28;19924;-67
2022/09/16 04:15:50;;;;;;;;;;;19.30;60.50;;;;;;5089000;28;19991;-67
2022/09/16 04:18:17;;;;;;;;;;;19.30;60.60;;;;;;5089153;28;19927;-67
2022/09/16 04:20:42;;;;;;;;;;;19.30;60.60;;;;;;5088161;28;19974;-67
2022/09/16 04:23:08;;;;;;;;;;;19.20;60.50;;;;;;5089063;28;19928;-67
2022/09/16 04:25:33;;;;;;;;;;;19.30;60.60;;;;;;5105014;28;19958;-67
2022/09/16 04:27:59;;;;;;;;;;;19.30;60.80;;;;;;5087863;28;20372;-67
2022/09/16 04:30:25;;;;;;;;;;;19.20;60.50;;;;;;5088803;28;19970;-67
2022/09/16 04:32:52;;;;;;;;;;;19.30;60.60;;;;;;5096454;28;19932;-67
2022/09/16 04:35:18;;;;;;;;;;;19.20;60.50;;;;;;5091171;28;19931;-68
2022/09/16 04:37:44;;;;;;;;;;;19.20;60.60;;;;;;5107734;28;20377;-67
2022/09/16 04:40:09;;;;;;;;;;;19.20;60.50;;;;;;5108963;28;19962;-67
2022/09/16 04:42:35;;;;;;;;;;;19.20;60.50;;;;;;5107663;28;20011;-68
2022/09/16 04:45:00;;;;;;;;;;;19.20;60.50;;;;;;5099069;28;19927;-67
2022/09/16 04:47:26;;;;;;;;;;;19.20;60.50;;;;;;5095250;28;19974;-67
2022/09/16 04:49:51;;;;;;;;;;;19.20;60.50;;;;;;5094011;28;19978;-67
2022/09/16 04:52:17;;;;;;;;;;;19.20;60.50;;;;;;5076953;28;19932;-67
2022/09/16 04:54:42;;;;;;;;;;;19.20;60.50;;;;;;5077058;28;19920;-67
2022/09/16 04:57:08;;;;;;;;;;;19.20;60.50;;;;;;5077182;28;19930;-67
2022/09/16 04:59:33;;;;;;;;;;;19.20;60.60;;;;;;5077246;28;20017;-67
2022/09/16 05:02:00;;;;;;;;;;;19.20;60.50;;;;;;5093952;28;19971;-67
2022/09/16 05:04:25;;;;;;;;;;;19.20;60.50;;;;;;5077045;28;19927;-67
2022/09/16 05:06:51;;;;;;;;;;;19.20;60.50;;;;;;5094957;28;19920;-67
2022/09/16 05:09:16;;;;;;;;;;;19.20;60.50;;;;;;5076948;28;20147;-67
2022/09/16 05:11:42;;;;;;;;;;;19.20;60.50;;;;;;5094937;28;19924;-67
2022/09/16 05:14:11;;;;;;;;;;;19.20;60.50;;;;;;5093491;28;19924;-67
2022/09/16 05:16:37;;;;;;;;;;;19.20;60.60;;;;;;5093696;28;19927;-67
2022/09/16 05:19:03;;;;;;;;;;;19.20;60.60;;;;;;5076492;28;20380;-67
2022/09/16 05:21:30;;;;;;;;;;;19.20;60.50;;;;;;5094820;28;20174;-67
2022/09/16 05:23:58;;;;;;;;;;;19.10;60.50;;;;;;5076703;28;19928;-67
2022/09/16 05:26:25;;;;;;;;;;;19.10;60.50;;;;;;5076479;28;19924;-67
2022/09/16 05:28:51;;;;;;;;;;;19.20;60.50;;;;;;5094449;28;20010;-67
2022/09/16 05:31:18;;;;;;;;;;;19.10;60.50;;;;;;5076551;28;19920;-67
2022/09/16 05:33:45;;;;;;;;;;;19.10;60.40;;;;;;5094032;28;19966;-67
2022/09/16 05:36:13;;;;;;;;;;;19.10;60.50;;;;;;5092254;28;20015;-66
2022/09/16 05:38:38;;;;;;;;;;;19.10;60.50;;;;;;5074103;28;19924;-66
2022/09/16 05:41:04;;;;;;;;;;;19.20;60.30;;;;;;5073522;28;20306;-67
2022/09/16 05:43:31;;;;;;;;;;;19.20;60.30;;;;;;5074221;28;19994;-66
2022/09/16 05:45:56;;;;;;;;;;;19.30;60.30;;;;;;5092810;28;20299;-66
2022/09/16 05:48:22;;;;;;;;;;;19.30;60.20;;;;;;5093095;28;19923;-66
2022/09/16 05:50:50;;;;;;;;;;;19.30;60.00;;;;;;5084551;28;19928;-66
2022/09/16 05:53:16;;;;;;;;;;;19.30;59.80;;;;;;5072251;28;19931;-66
2022/09/16 05:55:41;;;;;;;;;;;19.30;59.70;;;;;;5067230;28;20003;-69
2022/09/16 05:58:07;;;;;;;;;;;19.30;59.60;;;;;;5091511;28;19926;-66
2022/09/16 06:00:32;;;;;;;;;;;19.40;59.60;;;;;;5066965;28;20011;-66
2022/09/16 06:02:58;;;;;;;;;;;19.40;59.40;;;;;;5070433;28;19927;-67
2022/09/16 06:05:23;;;;;;;;;;;19.40;59.40;;;;;;5067096;28;20011;-66
2022/09/16 06:07:49;;;;;;;;;;;19.40;59.20;;;;;;5068235;28;19928;-67
2022/09/16 06:10:14;;;;;;;;;;;19.50;59.30;;;;;;5086794;28;19970;-66
2022/09/16 06:12:40;;;;;;;;;;;19.50;59.20;;;;;;5069681;28;20471;-66
2022/09/16 06:15:06;;;;;;;;;;;19.50;59.10;;;;;;5067574;28;19920;-68
2022/09/16 06:17:31;;;;;;;;;;;19.60;59.10;;;;;;5082664;28;19927;-66
2022/09/16 06:19:57;;;;;;;;;;;19.60;59.00;;;;;;5076581;28;19924;-69
2022/09/16 06:22:22;;;;;;;;;;;19.60;59.10;;;;;;5053421;28;20399;-66
2022/09/16 06:24:48;;;;;;;;;;;19.70;59.10;;;;;;5057584;28;19921;-66
2022/09/16 06:27:14;;;;;;;;;;;19.80;59.00;;;;;;5077547;28;19924;-66
2022/09/16 06:29:39;;;;;;;;;;;19.90;58.80;;;;;;5058745;28;19927;-68
2022/09/16 06:32:05;;;;;;;;;;;20.00;58.60;;;;;;5059808;28;19971;-65
2022/09/16 06:34:30;;;;;;;;;;;20.10;58.50;;;;;;5076309;28;20403;-67
2022/09/16 06:36:56;;;;;;;;;;;20.20;58.40;;;;;;5053189;28;19920;-67
2022/09/16 06:39:22;;;;;;;;;;;20.20;58.20;;;;;;5073112;28;19967;-67
2022/09/16 06:41:48;;;;;;;;;;;20.30;58.10;;;;;;5072422;28;19924;-67
2022/09/16 06:44:13;;;;;;;;;;;20.30;58.00;;;;;;5057827;28;19927;-67
2022/09/16 06:46:39;;;;;;;;;;;20.30;58.00;;;;;;5055727;28;19920;-67
2022/09/16 06:49:05;;;;;;;;;;;20.30;57.90;;;;;;5068749;28;19992;-65
2022/09/16 06:51:31;;;;;;;;;;;20.30;57.80;;;;;;5072490;28;19963;-65
2022/09/16 06:54:01;;;;;;;;;;;20.30;57.80;;;;;;5059436;28;20308;-66
2022/09/16 06:56:26;;;;;;;;;;;20.40;57.60;;;;;;5071939;28;20431;-66
2022/09/16 06:58:54;;;;;;;;;;;20.40;57.50;;;;;;5072691;28;19939;-66
2022/09/16 07:01:21;;;;;;;;;;;20.50;57.40;;;;;;5076341;28;19980;-66
2022/09/16 07:03:47;;;;;;;;;;;20.50;57.10;;;;;;5059322;28;19924;-69
2022/09/16 07:06:13;;;;;;;;;;;20.60;57.30;;;;;;5059513;28;20328;-68
2022/09/16 07:08:39;;;;;;;;;;;20.60;57.30;;;;;;5057813;28;20654;-66
2022/09/16 07:11:07;;;;;;;;;;;20.60;57.20;;;;;;5072212;28;20520;-67
2022/09/16 07:13:33;;;;;;;;;;;20.70;57.40;;;;;;5049730;28;19924;-72
2022/09/16 07:15:59;;;;;;;;;;;20.70;57.30;;;;;;5068603;28;19938;-73
2022/09/16 07:18:35;;;;;;;;;;;;;;;;;;;;;
2022/09/16 07:21:10;;;;;;;;;;;20.70;57.20;;;;;;5041718;28;19935;-72
2022/09/16 07:23:36;;;;;;;;;;;20.70;57.30;;;;;;5052832;28;19924;-73
2022/09/16 07:26:04;;;;;;;;;;;20.70;57.40;;;;;;5072486;28;20288;-72
2022/09/16 07:28:33;;;;;;;;;;;20.70;57.30;;;;;;5076427;28;19924;-70
2022/09/16 07:31:03;;;;;;;;;;;20.70;57.40;;;;;;5072713;28;19931;-74
2022/09/16 07:33:29;;;;;;;;;;;20.70;57.40;;;;;;5072691;28;19966;-73
2022/09/16 07:35:59;;;;;;;;;;;20.70;57.30;;;;;;5061309;28;20054;-72
2022/09/16 07:38:24;;;;;;;;;;;20.70;57.30;;;;;;5071342;28;20026;-72
2022/09/16 07:40:50;;;;;;;;;;;20.70;57.40;;;;;;5057841;28;20132;-70
2022/09/16 07:43:15;;;;;;;;;;;20.70;57.40;;;;;;5067035;28;20969;-71
2022/09/16 07:45:41;;;;;;;;;;;20.70;57.30;;;;;;5035206;28;19935;-74
2022/09/16 07:48:06;;;;;;;;;;;20.70;57.30;;;;;;5067660;28;20413;-73
2022/09/16 07:50:32;;;;;;;;;;;20.80;57.40;;;;;;5068966;28;20299;-72
2022/09/16 07:52:57;;;;;;;;;;;20.80;57.40;;;;;;5048540;28;19948;-71
2022/09/16 07:55:23;;;;;;;;;;;20.80;57.40;;;;;;5068905;28;19960;-67
2022/09/16 07:57:48;;;;;;;;;;;20.80;57.30;;;;;;5059928;28;20012;-73
2022/09/16 08:00:15;;;;;;;;;;;20.80;57.30;;;;;;5050594;28;19940;-70
2022/09/16 08:02:41;;;;;;;;;;;20.80;57.30;;;;;;5052779;28;20325;-72
2022/09/16 08:05:06;;;;;;;;;;;20.80;57.20;;;;;;5049410;28;19925;-71
2022/09/16 08:07:32;;;;;;;;;;;20.90;57.30;;;;;;5061398;28;19930;-72
2022/09/16 08:09:57;;;;;;;;;;;20.90;57.40;;;;;;5054577;28;20367;-74
2022/09/16 08:12:23;;;;;;;;;;;20.80;57.20;;;;;;5052976;28;19939;-72
2022/09/16 08:14:48;;;;;;;;;;;20.80;57.10;;;;;;5050632;28;20018;-72
2022/09/16 08:17:15;;;;;;;;;;;20.90;57.20;;;;;;5053017;28;19924;-67
2022/09/16 08:19:40;;;;;;;;;;;20.90;57.20;;;;;;5057567;28;19928;-68
2022/09/16 08:22:06;;;;;;;;;;;20.90;57.20;;;;;;5082625;28;19925;-68
2022/09/16 08:24:31;;;;;;;;;;;20.90;57.10;;;;;;5079162;28;19974;-69
2022/09/16 08:26:57;;;;;;;;;;;20.90;57.10;;;;;;5060969;28;19924;-69
2022/09/16 08:29:24;;;;;;;;;;;20.90;57.00;;;;;;5063503;28;19931;-68
2022/09/16 08:31:50;;;;;;;;;;;20.90;56.90;;;;;;5059179;28;20045;-68
2022/09/16 08:34:15;;;;;;;;;;;20.90;56.90;;;;;;5079326;28;19936;-69
2022/09/16 08:36:41;;;;;;;;;;;20.90;56.80;;;;;;5059368;28;19920;-68
2022/09/16 08:39:08;;;;;;;;;;;20.90;56.70;;;;;;5060481;28;20065;-69
2022/09/16 08:41:54;;;;;;;;;;;20.90;56.60;;;;;;5073627;28;19947;-69
2022/09/16 08:44:27;;;;;;;;;;;21.00;56.60;;;;;;5077129;28;20376;-69
2022/09/16 08:46:57;;;;;;;;;;;20.90;56.40;;;;;;5077120;28;19947;-68
2022/09/16 08:49:28;;;;;;;;;;;20.80;56.30;;;;;;5076217;28;19929;-71
2022/09/16 08:51:54;;;;;;;;;;;20.90;56.20;;;;;;5078497;28;19928;-69
2022/09/16 08:54:30;;;;;;;;;;;20.90;56.40;;;;;;5076186;28;19924;-71
2022/09/16 08:56:59;;;;;;;;;;;20.90;56.30;;;;;;5074898;28;19922;-71
2022/09/16 08:59:27;;;;;;;;;;;20.90;56.50;;;;;;5078125;28;19982;-71
2022/09/16 09:01:58;;;;;;;;;;;20.90;56.90;;;;;;5056028;28;19956;-71
2022/09/16 09:04:25;;;;;;;;;;;20.90;56.50;;;;;;5057541;28;19959;-69
2022/09/16 09:07:00;;;;;;;;;;;20.90;56.60;;;;;;5056905;28;19924;-70
2022/09/16 09:12:33;;;;;;;;;;;21.00;56.80;;;;;;5067630;27;20450;-74
2022/09/16 09:17:47;;;;;;;;;;;21.00;56.80;;;;;;5091758;27;20516;-70
2022/09/16 09:20:32;;;;;;;;;;;21.10;57.50;;;;;;5091703;28;20280;-68
2022/09/16 09:25:57;;;;;;;;;;;21.10;56.70;;;;;;5076034;27;19923;-69
2022/09/16 09:31:26;;;;;;;;;;;21.10;56.50;;;;;;5067191;28;20407;-72
2022/09/16 09:33:59;;;;;;;;;;;21.10;56.50;;;;;;5066490;28;20007;-69
2022/09/16 09:39:16;;;;;;;;;;;21.20;56.60;;;;;;5073537;27;19927;-69
2022/09/16 09:41:45;;;;;;;;;;;21.20;56.60;;;;;;5072200;28;19936;-66
2022/09/16 09:44:30;;;;;;;;;;;21.20;56.60;;;;;;5066749;28;19932;-68
2022/09/16 09:46:59;;;;;;;;;;;21.20;56.60;;;;;;5067221;28;20470;-71
2022/09/16 09:52:15;;;;;;;;;;;21.30;56.80;;;;;;5085248;27;19927;-70
2022/09/16 09:54:43;;;;;;;;;;;21.30;56.90;;;;;;5105463;28;20303;-69
2022/09/16 09:57:13;;;;;;;;;;;21.30;57.00;;;;;;5104587;28;20426;-68
2022/09/16 09:59:44;;;;;;;;;;;21.30;57.00;;;;;;5106207;28;20505;-69
2022/09/16 10:02:13;;;;;;;;;;;21.30;57.00;;;;;;5070333;28;19972;-67
2022/09/16 10:04:39;;;;;;;;;;;21.40;57.00;;;;;;5073809;28;19927;-68
2022/09/16 10:07:05;;;;;;;;;;;21.40;56.60;;;;;;5109811;28;19920;-67
2022/09/16 10:09:32;;;;;;;;;;;21.40;56.70;;;;;;5078176;28;20550;-71
2022/09/16 10:11:58;;;;;;;;;;;21.40;56.70;;;;;;5076173;28;19928;-70
2022/09/16 10:17:16;;;;;;;;;;;21.50;56.60;;;;;;5084461;27;19925;-67
2022/09/16 10:19:58;;;;;;;;;;;21.40;56.50;;;;;;5093313;28;19924;-67
2022/09/16 10:22:26;;;;;;;;;;;21.50;56.60;;;;;;5090692;28;20378;-66
2022/09/16 10:24:54;;;;;;;;;;;21.50;56.30;;;;;;5090929;28;19946;-66
2022/09/16 10:27:22;;;;;;;;;;;21.50;56.00;;;;;;5089721;28;19924;-66
2022/09/16 10:30:01;;;;;;;;;;;21.50;55.80;;;;;;5089574;28;20334;-65
2022/09/16 10:32:27;;;;;;;;;;;21.40;55.50;;;;;;5096327;28;19925;-65
2022/09/16 10:34:53;;;;;;;;;;;21.40;54.90;;;;;;5091789;28;19973;-65
2022/09/16 10:37:19;;;;;;;;;;;21.40;53.80;;;;;;5092359;28;19981;-66
2022/09/16 10:39:52;;;;;;;;;;;21.40;54.20;;;;;;5114482;27;20021;-66
2022/09/16 10:42:20;;;;;;;;;;;21.40;54.50;;;;;;5091826;28;19924;-68
2022/09/16 10:44:47;;;;;;;;;;;21.40;53.80;;;;;;5088396;28;19946;-66
2022/09/16 10:47:18;;;;;;;;;;;21.40;53.80;;;;;;5085310;28;19996;-72
2022/09/16 10:49:46;;;;;;;;;;;21.40;53.30;;;;;;5082486;28;20014;-69
2022/09/16 10:52:16;;;;;;;;;;;21.40;54.20;;;;;;5090254;28;19924;-69
2022/09/16 10:54:42;;;;;;;;;;;21.40;54.30;;;;;;5088346;28;20044;-68
2022/09/16 10:57:25;;;;;;;;;;;21.50;54.40;;;;;;5085024;28;20006;-71
2022/09/16 11:11:02;;;;;;;;;;;21.50;54.40;;;;;;5086464;27;19927;-73
2022/09/16 11:13:31;;;;;;;;;;;21.50;54.40;;;;;;5101752;28;19930;-72
2022/09/16 11:16:17;;;;;;;;;;;21.60;54.50;;;;;;5079336;28;19928;-75
2022/09/16 11:24:25;;;;;;;;;;;21.60;54.60;;;;;;5073285;27;19924;-69
2022/09/16 11:27:11;;;;;;;;;;;21.50;54.70;;;;;;5087594;28;19924;-68
2022/09/16 11:32:28;;;;;;;;;;;21.60;54.60;;;;;;5078851;27;19924;-66
2022/09/16 11:37:53;;;;;;;;;;;21.60;54.70;;;;;;5083827;27;1860359;-70
2022/09/16 11:43:05;;;;;;;;;;;21.60;54.90;;;;;;5057080;28;19913;-72
2022/09/16 11:51:05;;;;;;;;;;;21.60;55.10;;;;;;5058755;28;20364;-70
2022/09/16 11:53:51;;;;;;;;;;;21.70;55.20;;;;;;5050552;28;19978;-70
2022/09/16 11:56:19;;;;;;;;;;;21.60;55.20;;;;;;5071606;28;20592;-69
2022/09/16 12:01:43;;;;;;;;;;;21.60;55.30;;;;;;5103577;27;19926;-70
2022/09/16 12:04:28;;;;;;;;;;;21.70;55.30;;;;;;5090324;28;20272;-70
2022/09/16 12:07:05;;;;;;;;;;;21.70;55.40;;;;;;5094510;28;19923;-69
2022/09/16 12:09:35;;;;;;;;;;;21.70;55.40;;;;;;5126844;27;19927;-72
2022/09/16 12:12:07;;;;;;;;;;;21.70;55.50;;;;;;5122314;27;19920;-74
2022/09/16 12:14:53;;;;;;;;;;;21.70;55.40;;;;;;5128662;27;19975;-71
2022/09/16 12:17:21;;;;;;;;;;;21.60;55.40;;;;;;5086194;28;20010;-72
2022/09/16 12:19:51;;;;;;;;;;;21.70;55.50;;;;;;5097310;28;19960;-72
2022/09/16 12:22:36;;;;;;;;;;;21.60;55.50;;;;;;5093417;28;19920;-69
2022/09/16 12:27:45;;;;;;;;;;;21.60;55.60;;;;;;5090158;27;19925;-68
2022/09/16 12:30:15;;;;;;;;;;;21.60;55.60;;;;;;5060565;28;19975;-64
2022/09/16 12:33:00;;;;;;;;;;;21.60;55.50;;;;;;5042733;28;19932;-63
2022/09/16 12:35:35;;;;;;;;;;;21.70;54.90;;;;;;5069277;28;19978;-64
2022/09/16 12:38:01;;;;;;;;;;;21.60;54.50;;;;;;5043326;28;20395;-65
2022/09/16 12:40:28;;;;;;;;;;;21.60;54.30;;;;;;5048215;28;19921;-65
2022/09/16 12:43:14;;;;;;;;;;;21.60;54.20;;;;;;5046269;28;19929;-69
2022/09/16 12:45:49;;;;;;;;;;;21.60;54.10;;;;;;5052047;28;19925;-66
2022/09/16 12:48:25;;;;;;;;;;;21.60;54.10;;;;;;5059975;28;19932;-67
2022/09/16 12:51:11;;;;;;;;;;;21.60;54.10;;;;;;5039988;28;20020;-67
2022/09/16 12:53:56;;;;;;;;;;;21.60;54.00;;;;;;5055093;28;20377;-69
2022/09/16 12:59:22;;;;;;;;;;;21.60;53.70;;;;;;5076550;28;20589;-70
2022/09/16 13:01:49;;;;;;;;;;;21.60;53.40;;;;;;5061867;28;20036;-71
2022/09/16 13:07:00;;;;;;;;;;;21.60;53.40;;;;;;5093325;27;19916;-71
2022/09/16 13:09:32;;;;;;;;;;;21.50;53.50;;;;;;5064303;28;20034;-71
2022/09/16 13:14:45;;;;;;;;;;;21.60;53.30;;;;;;5103997;27;19912;-75
2022/09/16 13:17:11;;;;;;;;;;;21.50;53.10;;;;;;5104875;28;19927;-75
2022/09/16 13:19:40;;;;;;;;;;;21.60;53.20;;;;;;5103599;28;20356;-74
2022/09/16 13:24:52;;;;;;;;;;;21.50;53.00;;;;;;5085760;28;19921;-75
2022/09/16 13:27:24;;;;;;;;;;;21.50;53.80;;;;;;5085995;28;19929;-71
2022/09/16 13:29:49;;;;;;;;;;;21.60;54.10;;;;;;5080419;28;20694;-71
2022/09/16 13:32:35;;;;;;;;;;;21.70;53.60;;;;;;5082379;28;19947;-70
2022/09/16 13:35:01;;;;;;;;;;;21.60;53.50;;;;;;5083685;28;20037;-70
2022/09/16 13:37:27;;;;;;;;;;;21.60;53.40;;;;;;5084641;28;19927;-69
2022/09/16 13:39:52;;;;;;;;;;;21.60;53.30;;;;;;5082172;28;19949;-72
2022/09/16 13:42:19;;;;;;;;;;;21.60;53.40;;;;;;5084735;28;19927;-70
2022/09/16 13:44:45;;;;;;;;;;;21.60;53.40;;;;;;5083305;28;20189;-69
2022/09/16 13:52:34;;;;;;;;;;;21.60;53.30;;;;;;5089246;27;19916;-69
2022/09/16 13:55:01;;;;;;;;;;;21.70;53.40;;;;;;5086157;28;19950;-69
2022/09/16 13:57:48;;;;;;;;;;;21.60;53.30;;;;;;5093167;28;19920;-69
2022/09/16 14:00:19;;;;;;;;;;;21.60;53.20;;;;;;5089954;28;19924;-70
2022/09/16 14:08:30;;;;;;;;;;;21.70;53.20;;;;;;5107158;27;19912;-68
2022/09/16 14:11:01;;;;;;;;;;;21.70;53.50;;;;;;5107174;28;19920;-68
2022/09/16 14:13:46;;;;;;;;;;;21.70;53.40;;;;;;5105970;28;19924;-68
2022/09/16 14:16:28;;;;;;;;;;;21.70;53.20;;;;;;5104413;28;19924;-66
2022/09/16 14:19:14;;;;;;;;;;;21.70;53.30;;;;;;5104911;28;20114;-67
2022/09/16 14:21:39;;;;;;;;;;;21.70;52.80;;;;;;5100627;28;19947;-66
2022/09/16 14:24:20;;;;;;;;;;;21.70;53.10;;;;;;5104148;28;19998;-66
2022/09/16 14:26:50;;;;;;;;;;;21.70;53.00;;;;;;5105724;28;20010;-67
2022/09/16 14:29:15;;;;;;;;;;;21.70;52.90;;;;;;5103834;28;19920;-67
2022/09/16 14:31:44;;;;;;;;;;;21.70;52.80;;;;;;5103037;28;19943;-69
2022/09/16 14:34:13;;;;;;;;;;;21.60;52.60;;;;;;5106338;28;19997;-65
2022/09/16 14:36:39;;;;;;;;;;;21.70;52.60;;;;;;5106734;28;20299;-66
2022/09/16 14:41:47;;;;;;;;;;;21.60;52.20;;;;;;5069984;28;19917;-66
2022/09/16 14:47:03;;;;;;;;;;;21.60;52.30;;;;;;5087689;28;19908;-66
2022/09/16 14:49:29;;;;;;;;;;;21.50;52.20;;;;;;5084141;28;19974;-66
2022/09/16 14:51:56;;;;;;;;;;;21.50;52.30;;;;;;5084481;28;19922;-66
2022/09/16 14:54:23;;;;;;;;;;;21.50;52.30;;;;;;5086337;28;19928;-66
2022/09/16 14:57:05;;;;;;;;;;;21.40;52.40;;;;;;5087017;28;20363;-66
2022/09/16 14:59:35;;;;;;;;;;;21.30;52.30;;;;;;5086635;28;19927;-66
2022/09/16 15:02:04;;;;;;;;;;;21.30;52.40;;;;;;5087355;28;19934;-66
2022/09/16 15:04:31;;;;;;;;;;;21.30;52.50;;;;;;5088591;28;19963;-66
2022/09/16 15:07:00;;;;;;;;;;;21.20;52.50;;;;;;5087978;28;19969;-67
2022/09/16 15:09:33;;;;;;;;;;;21.30;52.70;;;;;;5086927;28;19924;-66
2022/09/16 15:11:59;;;;;;;;;;;21.20;52.70;;;;;;5087021;28;20483;-66
2022/09/16 15:14:25;;;;;;;;;;;21.20;52.80;;;;;;5088769;28;19920;-66
2022/09/16 15:16:54;;;;;;;;;;;21.20;52.90;;;;;;5088491;28;20364;-66
2022/09/16 15:19:23;;;;;;;;;;;21.20;52.90;;;;;;5087524;28;19920;-66
2022/09/16 15:21:49;;;;;;;;;;;21.20;53.00;;;;;;5088704;28;19921;-66
2022/09/16 15:24:18;;;;;;;;;;;21.10;52.90;;;;;;5087260;28;20493;-66
2022/09/16 15:26:45;;;;;;;;;;;21.10;53.00;;;;;;5086967;28;19932;-66
2022/09/16 15:29:25;;;;;;;;;;;21.10;53.00;;;;;;5088070;28;20288;-66
2022/09/16 15:31:51;;;;;;;;;;;21.10;53.00;;;;;;5086843;28;19924;-67
2022/09/16 15:36:57;;;;;;;;;;;21.10;53.10;;;;;;5109295;27;19922;-66
2022/09/16 15:42:19;;;;;;;;;;;21.00;53.10;;;;;;5088854;28;19914;-66
2022/09/16 15:44:46;;;;;;;;;;;21.00;53.20;;;;;;5088192;28;20033;-66
2022/09/16 15:47:17;;;;;;;;;;;21.00;53.30;;;;;;5087951;28;19921;-66
2022/09/16 15:49:43;;;;;;;;;;;21.00;53.30;;;;;;5087173;28;19973;-67
2022/09/16 15:52:10;;;;;;;;;;;20.90;53.30;;;;;;5087012;28;19920;-67
2022/09/16 15:54:53;;;;;;;;;;;20.90;53.40;;;;;;5087798;28;19918;-67
2022/09/16 15:57:26;;;;;;;;;;;20.90;53.40;;;;;;5087479;28;19930;-67
2022/09/16 16:02:52;;;;;;;;;;;20.90;53.50;;;;;;5088876;28;19960;-67
2022/09/16 16:05:27;;;;;;;;;;;20.90;53.50;;;;;;5087701;28;19921;-67
2022/09/16 16:07:55;;;;;;;;;;;20.80;53.50;;;;;;5087630;28;19924;-67
2022/09/16 16:10:25;;;;;;;;;;;20.80;53.50;;;;;;5086937;28;19931;-67
2022/09/16 16:12:53;;;;;;;;;;;20.80;53.50;;;;;;5087012;28;19920;-67
2022/09/16 16:15:20;;;;;;;;;;;20.90;53.70;;;;;;5087351;28;19934;-67
2022/09/16 16:17:46;;;;;;;;;;;20.80;53.70;;;;;;5088002;28;19943;-67
2022/09/16 16:20:13;;;;;;;;;;;20.80;53.70;;;;;;5087189;28;20272;-67
2022/09/16 16:22:39;;;;;;;;;;;20.80;53.70;;;;;;5089146;28;19963;-67
2022/09/16 16:25:05;;;;;;;;;;;20.70;53.70;;;;;;5087397;28;19924;-67
2022/09/16 16:27:32;;;;;;;;;;;20.80;53.70;;;;;;5086752;28;20010;-67
2022/09/16 16:29:57;;;;;;;;;;;20.80;53.80;;;;;;5088213;28;20012;-67
2022/09/16 16:32:23;;;;;;;;;;;20.80;53.90;;;;;;5086981;28;20323;-67